createdAt,value
2023-01-17T00:01:22.547Z,5.35
2023-01-17T00:03:49.215Z,5.38
2023-01-17T00:06:15.891Z,5.30
2023-01-17T00:08:42.558Z,5.26
2023-01-17T00:11:09.223Z,5.22
2023-01-17T00:13:35.824Z,5.29
2023-01-17T00:16:02.645Z,5.23
2023-01-17T00:18:30.716Z,5.37
2023-01-17T00:20:57.367Z,5.21
2023-01-17T00:23:25.696Z,5.29
2023-01-17T00:25:52.996Z,5.30
2023-01-17T00:28:20.008Z,5.25
2023-01-17T00:30:47.022Z,5.11
2023-01-17T00:33:13.929Z,5.19
2023-01-17T00:35:48.157Z,5.09
2023-01-17T00:38:16.367Z,5.08
2023-01-17T00:40:44.946Z,5.00
2023-01-17T00:43:12.957Z,4.89
2023-01-17T00:45:39.603Z,4.86
2023-01-17T00:48:06.454Z,4.91
2023-01-17T00:50:33.335Z,5.00
2023-01-17T00:53:05.048Z,5.10
2023-01-17T00:55:36.381Z,4.93
2023-01-17T00:58:12.572Z,4.83
2023-01-17T01:00:39.298Z,4.90
2023-01-17T01:03:09.021Z,4.79
2023-01-17T01:05:36.973Z,4.76
2023-01-17T01:08:16.119Z,4.75
2023-01-17T01:10:42.801Z,4.54
2023-01-17T01:13:09.499Z,4.53
2023-01-17T01:15:36.142Z,4.34
2023-01-17T01:18:05.867Z,4.30
2023-01-17T01:20:47.218Z,4.48
2023-01-17T01:23:15.250Z,4.41
2023-01-17T01:25:41.899Z,4.37
2023-01-17T01:28:19.593Z,4.37
2023-01-17T01:30:49.150Z,4.52
2023-01-17T01:33:16.272Z,4.48
2023-01-17T01:35:45.344Z,4.45
2023-01-17T01:38:11.977Z,4.30
2023-01-17T01:40:48.454Z,4.29
2023-01-17T01:43:41.501Z,4.26
2023-01-17T01:46:11.406Z,4.22
2023-01-17T01:48:42.397Z,4.33
2023-01-17T01:51:15.093Z,4.46
2023-01-17T01:53:45.446Z,4.65
2023-01-17T01:56:15.203Z,4.87
2023-01-17T01:58:53.576Z,4.77
2023-01-17T02:01:20.548Z,4.75
2023-01-17T02:03:48.332Z,4.61
2023-01-17T02:06:28.454Z,4.66
2023-01-17T02:08:57.310Z,4.47
2023-01-17T02:11:26.328Z,4.52
2023-01-17T02:13:53.018Z,4.60
2023-01-17T02:16:36.883Z,4.55
2023-01-17T02:19:30.095Z,4.52
2023-01-17T02:22:05.258Z,4.51
2023-01-17T02:24:54.734Z,4.47
2023-01-17T02:27:27.114Z,4.31
2023-01-17T02:30:27.565Z,4.10
2023-01-17T02:33:03.453Z,4.14
2023-01-17T02:35:36.249Z,3.98
2023-01-17T02:38:19.574Z,4.01
2023-01-17T02:40:52.610Z,3.61
2023-01-17T02:43:22.480Z,3.76
2023-01-17T02:45:50.847Z,3.48
2023-01-17T02:48:22.589Z,3.84
2023-01-17T02:51:11.712Z,3.79
2023-01-17T02:53:54.127Z,3.73
2023-01-17T02:56:34.363Z,3.76
2023-01-17T02:59:14.578Z,3.88
2023-01-17T03:01:57.742Z,4.07
2023-01-17T03:04:30.132Z,3.91
2023-01-17T03:06:59.134Z,3.74
2023-01-17T03:09:26.384Z,3.89
2023-01-17T03:11:53.652Z,3.91
2023-01-17T03:14:20.288Z,3.88
2023-01-17T03:16:48.398Z,3.67
2023-01-17T03:19:15.182Z,3.75
2023-01-17T03:21:41.799Z,3.74
2023-01-17T03:24:08.736Z,3.94
2023-01-17T03:26:35.386Z,3.89
2023-01-17T03:29:02.339Z,3.98
2023-01-17T03:31:29.004Z,3.88
2023-01-17T03:33:59.283Z,3.91
2023-01-17T03:36:25.876Z,3.84
2023-01-17T03:38:54.890Z,3.70
2023-01-17T03:41:21.540Z,3.70
2023-01-17T03:43:48.206Z,3.86
2023-01-17T03:46:20.412Z,3.89
2023-01-17T03:48:47.092Z,3.80
2023-01-17T03:51:15.187Z,3.77
2023-01-17T03:53:41.956Z,3.70
2023-01-17T03:56:09.292Z,3.77
2023-01-17T03:58:36.025Z,3.86
2023-01-17T04:01:02.761Z,3.69
2023-01-17T04:03:29.547Z,3.69
2023-01-17T04:05:56.321Z,3.52
2023-01-17T04:08:24.604Z,3.47
2023-01-17T04:10:51.248Z,3.37
2023-01-17T04:13:18.004Z,3.40
2023-01-17T04:15:45.770Z,3.44
2023-01-17T04:18:13.229Z,3.42
2023-01-17T04:20:40.790Z,3.39
2023-01-17T04:23:07.855Z,3.48
2023-01-17T04:25:36.156Z,3.52
2023-01-17T04:28:03.326Z,3.53
2023-01-17T04:30:31.302Z,3.68
2023-01-17T04:33:00.582Z,3.68
2023-01-17T04:35:29.362Z,3.68
2023-01-17T04:37:58.190Z,3.64
2023-01-17T04:40:25.023Z,3.69
2023-01-17T04:42:53.047Z,3.90
2023-01-17T04:45:19.917Z,3.78
2023-01-17T04:47:46.542Z,3.88
2023-01-17T04:50:13.193Z,3.79
2023-01-17T04:52:39.875Z,3.89
2023-01-17T04:55:07.484Z,3.65
2023-01-17T04:57:34.337Z,3.83
2023-01-17T05:00:02.604Z,3.70
2023-01-17T05:02:29.298Z,3.50
2023-01-17T05:04:56.058Z,3.56
2023-01-17T05:07:24.133Z,3.66
2023-01-17T05:09:50.810Z,3.67
2023-01-17T05:12:17.480Z,3.77
2023-01-17T05:14:44.111Z,3.69
2023-01-17T05:17:12.098Z,3.74
2023-01-17T05:19:38.705Z,3.69
2023-01-17T05:22:05.463Z,3.45
2023-01-17T05:24:32.109Z,3.46
2023-01-17T05:26:58.785Z,3.44
2023-01-17T05:29:25.479Z,3.48
2023-01-17T05:31:52.118Z,3.28
2023-01-17T05:34:20.206Z,3.22
2023-01-17T05:36:46.854Z,3.39
2023-01-17T05:39:13.498Z,3.47
2023-01-17T05:41:40.207Z,3.52
2023-01-17T05:44:06.956Z,3.46
2023-01-17T05:46:33.704Z,3.36
2023-01-17T05:49:00.418Z,3.40
2023-01-17T05:51:28.532Z,3.22
2023-01-17T05:53:55.462Z,3.18
2023-01-17T05:56:22.136Z,3.17
2023-01-17T05:58:48.819Z,3.06
2023-01-17T06:01:15.511Z,2.91
2023-01-17T06:03:42.177Z,2.85
2023-01-17T06:06:08.803Z,2.83
2023-01-17T06:08:36.775Z,2.85
2023-01-17T06:11:03.609Z,2.93
2023-01-17T06:13:30.178Z,2.90
2023-01-17T06:15:56.911Z,2.81
2023-01-17T06:18:23.611Z,2.75
2023-01-17T06:20:52.631Z,2.86
2023-01-17T06:23:19.388Z,2.79
2023-01-17T06:25:47.994Z,2.84
2023-01-17T06:28:17.744Z,2.79
2023-01-17T06:30:45.064Z,2.87
2023-01-17T06:33:12.203Z,2.56
2023-01-17T06:35:38.933Z,2.38
2023-01-17T06:38:05.708Z,2.80
2023-01-17T06:40:32.725Z,2.75
2023-01-17T06:43:01.621Z,2.87
2023-01-17T06:45:28.835Z,2.91
2023-01-17T06:47:55.503Z,2.91
2023-01-17T06:50:22.186Z,2.93
2023-01-17T06:52:54.864Z,2.80
2023-01-17T06:55:21.647Z,3.10
2023-01-17T06:57:48.328Z,3.26
2023-01-17T07:00:17.301Z,3.25
2023-01-17T07:02:43.973Z,3.05
2023-01-17T07:05:10.628Z,3.14
2023-01-17T07:07:37.273Z,3.30
2023-01-17T07:10:04.705Z,3.21
2023-01-17T07:12:31.372Z,3.37
2023-01-17T07:14:58.009Z,3.40
2023-01-17T07:17:26.073Z,3.21
2023-01-17T07:19:52.765Z,3.33
2023-01-17T07:22:19.423Z,3.33
2023-01-17T07:24:51.215Z,3.30
2023-01-17T07:27:17.955Z,3.19
2023-01-17T07:29:45.674Z,3.31
2023-01-17T07:32:12.321Z,3.38
2023-01-17T07:34:41.448Z,3.02
2023-01-17T07:37:08.116Z,2.78
2023-01-17T07:39:34.777Z,2.87
2023-01-17T07:42:01.543Z,3.24
2023-01-17T07:44:31.108Z,3.43
2023-01-17T07:46:57.725Z,3.39
2023-01-17T07:49:24.382Z,3.34
2023-01-17T07:51:52.484Z,3.71
2023-01-17T07:54:19.163Z,3.93
2023-01-17T07:56:45.791Z,4.04
2023-01-17T07:59:12.770Z,3.95
2023-01-17T08:01:39.384Z,3.71
2023-01-17T08:04:06.135Z,3.75
2023-01-17T08:06:32.964Z,3.51
2023-01-17T08:09:01.001Z,3.47
2023-01-17T08:11:27.637Z,3.40
2023-01-17T08:13:54.315Z,3.19
2023-01-17T08:16:21.018Z,3.19
2023-01-17T08:18:47.665Z,3.00
2023-01-17T08:21:15.632Z,3.39
2023-01-17T08:40:57.145Z,3.72
2023-01-17T08:44:09.206Z,4.17
2023-01-17T08:46:40.221Z,3.99
2023-01-17T08:52:37.993Z,4.29
2023-01-17T08:55:22.657Z,4.42
2023-01-17T08:58:42.837Z,4.51
2023-01-17T09:01:29.217Z,4.45
2023-01-17T09:03:57.108Z,4.03
2023-01-17T09:13:25.448Z,4.45
2023-01-17T09:16:28.606Z,4.40
